createdAt,value
2022-10-15T00:00:46.633Z,98531.00
2022-10-15T00:02:20.074Z,98534.00
2022-10-15T00:03:53.397Z,98539.00
2022-10-15T00:05:27.087Z,98534.00
2022-10-15T00:07:00.569Z,98530.00
2022-10-15T00:08:33.294Z,98537.00
2022-10-15T00:10:07.257Z,98535.00
2022-10-15T00:11:41.989Z,98528.00
2022-10-15T00:13:14.298Z,98537.00
2022-10-15T00:14:47.796Z,98536.00
2022-10-15T00:16:25.343Z,98538.00
2022-10-15T00:17:58.592Z,98540.00
2022-10-15T00:19:31.914Z,98535.00
2022-10-15T00:21:08.781Z,98536.00
2022-10-15T00:22:42.242Z,98526.00
2022-10-15T00:24:15.524Z,98522.00
2022-10-15T00:25:48.097Z,98521.00
2022-10-15T00:27:22.956Z,98527.00
2022-10-15T00:28:59.844Z,98523.00
2022-10-15T00:30:33.496Z,98522.00
2022-10-15T00:32:07.061Z,98517.00
2022-10-15T00:33:41.359Z,98516.00
2022-10-15T00:35:14.696Z,98513.00
2022-10-15T00:36:50.620Z,98517.00
2022-10-15T00:38:22.966Z,98511.00
2022-10-15T00:39:56.428Z,98522.00
2022-10-15T00:41:35.493Z,98522.00
2022-10-15T00:43:12.858Z,98512.00
2022-10-15T00:44:55.125Z,98520.00
2022-10-15T00:46:33.956Z,98511.00
2022-10-15T00:48:10.432Z,98516.00
2022-10-15T00:49:50.856Z,98506.00
2022-10-15T00:51:30.989Z,98516.00
2022-10-15T00:53:09.095Z,98505.00
2022-10-15T00:54:46.104Z,98511.00
2022-10-15T00:56:23.229Z,98508.00
2022-10-15T00:58:01.790Z,98501.00
2022-10-15T00:59:42.355Z,98505.00
2022-10-15T01:01:22.415Z,98498.00
2022-10-15T01:03:00.195Z,98510.00
2022-10-15T01:04:37.183Z,98510.00
2022-10-15T01:06:15.052Z,98497.00
2022-10-15T01:07:51.134Z,98506.00
2022-10-15T01:09:26.852Z,98508.00
2022-10-15T01:11:25.108Z,98503.00
2022-10-15T01:13:14.624Z,98508.00
2022-10-15T01:15:02.750Z,98501.00
2022-10-15T01:16:48.763Z,98495.00
2022-10-15T01:18:32.925Z,98496.00
2022-10-15T01:20:45.754Z,98498.00
2022-10-15T01:22:35.602Z,98488.00
2022-10-15T01:24:49.842Z,98496.00
2022-10-15T01:27:18.413Z,98486.00
2022-10-15T01:29:13.200Z,98495.00
2022-10-15T01:31:00.085Z,98483.00
2022-10-15T01:32:39.000Z,98490.00
2022-10-15T01:34:22.421Z,98488.00
2022-10-15T01:36:08.894Z,98494.00
2022-10-15T01:37:51.787Z,98497.00
2022-10-15T01:39:32.936Z,98498.00
2022-10-15T01:41:15.166Z,98499.00
2022-10-15T01:42:57.667Z,98500.00
2022-10-15T01:44:37.888Z,98498.00
2022-10-15T01:46:28.204Z,98501.00
2022-10-15T01:48:12.319Z,98506.00
2022-10-15T01:49:48.609Z,98501.00
2022-10-15T01:51:25.467Z,98504.00
2022-10-15T01:53:07.345Z,98512.00
2022-10-15T01:54:41.863Z,98512.00
2022-10-15T01:56:21.377Z,98512.00
2022-10-15T01:57:59.939Z,98507.00
2022-10-15T01:59:35.813Z,98510.00
2022-10-15T02:01:11.712Z,98502.00
2022-10-15T02:02:50.529Z,98505.00
2022-10-15T02:04:29.396Z,98503.00
2022-10-15T02:06:11.519Z,98501.00
2022-10-15T02:07:54.648Z,98499.00
2022-10-15T02:09:43.754Z,98504.00
2022-10-15T02:11:21.891Z,98495.00
2022-10-15T02:13:07.713Z,98494.00
2022-10-15T02:14:54.605Z,98495.00
2022-10-15T02:16:39.137Z,98481.00
2022-10-15T02:18:22.232Z,98489.00
2022-10-15T02:20:06.053Z,98491.00
2022-10-15T02:21:46.664Z,98492.00
2022-10-15T02:23:24.711Z,98484.00
2022-10-15T02:25:05.544Z,98477.00
2022-10-15T02:26:42.036Z,98487.00
2022-10-15T02:28:18.389Z,98478.00
2022-10-15T02:29:54.207Z,98482.00
2022-10-15T02:31:31.825Z,98485.00
2022-10-15T02:33:06.196Z,98492.00
2022-10-15T02:34:42.258Z,98486.00
2022-10-15T02:36:16.248Z,98487.00
2022-10-15T02:37:54.027Z,98486.00
2022-10-15T02:39:28.193Z,98485.00
2022-10-15T02:41:03.036Z,98488.00
2022-10-15T02:42:36.659Z,98483.00
2022-10-15T02:44:13.629Z,98476.00
2022-10-15T02:45:47.040Z,98481.00
2022-10-15T02:47:21.337Z,98487.00
2022-10-15T02:48:55.064Z,98473.00
2022-10-15T02:50:29.642Z,98482.00
2022-10-15T02:52:03.148Z,98482.00
2022-10-15T02:53:36.454Z,98487.00
2022-10-15T02:55:10.908Z,98492.00
2022-10-15T02:56:45.120Z,98495.00
2022-10-15T02:58:19.113Z,98498.00
2022-10-15T03:00:30.527Z,98505.00
2022-10-15T03:02:04.117Z,98513.00
2022-10-15T03:03:38.157Z,98514.00
2022-10-15T03:05:11.659Z,98505.00
2022-10-15T03:06:46.547Z,98507.00
2022-10-15T03:08:20.940Z,98519.00
2022-10-15T03:09:54.858Z,98509.00
2022-10-15T03:11:28.442Z,98509.00
2022-10-15T03:13:04.944Z,98510.00
2022-10-15T03:14:41.883Z,98508.00
2022-10-15T03:16:15.221Z,98509.00
2022-10-15T03:17:50.898Z,98510.00
2022-10-15T03:19:23.539Z,98508.00
2022-10-15T03:20:57.663Z,98511.00
2022-10-15T03:22:32.785Z,98515.00
2022-10-15T03:24:07.468Z,98511.00
2022-10-15T03:25:40.805Z,98504.00
2022-10-15T03:27:17.295Z,98508.00
2022-10-15T03:28:49.816Z,98502.00
2022-10-15T03:30:35.636Z,98501.00
2022-10-15T03:32:09.167Z,98490.00
2022-10-15T03:33:42.992Z,98489.00
2022-10-15T03:35:16.575Z,98477.00
2022-10-15T03:36:49.881Z,98485.00
2022-10-15T03:38:25.579Z,98488.00
2022-10-15T03:40:00.007Z,98485.00
2022-10-15T03:41:34.250Z,98486.00
2022-10-15T03:43:07.646Z,98486.00
2022-10-15T03:44:41.345Z,98475.00
2022-10-15T03:46:17.851Z,98477.00
2022-10-15T03:47:54.516Z,98475.00
2022-10-15T03:49:29.061Z,98466.00
2022-10-15T03:51:02.345Z,98463.00
2022-10-15T03:52:36.871Z,98461.00
2022-10-15T03:54:11.713Z,98464.00
2022-10-15T03:55:52.711Z,98464.00
2022-10-15T03:57:26.933Z,98473.00
2022-10-15T03:59:06.678Z,98466.00
2022-10-15T04:00:43.274Z,98482.00
2022-10-15T04:02:17.371Z,98475.00
2022-10-15T04:03:54.050Z,98459.00
2022-10-15T04:05:31.423Z,98450.00
2022-10-15T04:07:11.952Z,98461.00
2022-10-15T04:08:45.250Z,98465.00
2022-10-15T04:10:29.503Z,98464.00
2022-10-15T04:12:02.792Z,98471.00
2022-10-15T04:13:36.352Z,98466.00
2022-10-15T04:15:10.796Z,98468.00
2022-10-15T04:16:50.688Z,98474.00
2022-10-15T04:18:28.708Z,98477.00
2022-10-15T04:20:02.823Z,98485.00
2022-10-15T04:21:35.204Z,98484.00
2022-10-15T04:23:10.535Z,98481.00
2022-10-15T04:24:45.993Z,98478.00
2022-10-15T04:26:25.462Z,98489.00
2022-10-15T04:27:58.713Z,98491.00
2022-10-15T04:29:31.327Z,98497.00
2022-10-15T04:31:16.545Z,98495.00
2022-10-15T04:32:53.139Z,98502.00
2022-10-15T04:34:27.278Z,98499.00
2022-10-15T04:36:03.198Z,98490.00
2022-10-15T04:37:59.403Z,98487.00
2022-10-15T04:39:33.862Z,98485.00
2022-10-15T04:41:11.106Z,98492.00
2022-10-15T04:43:05.642Z,98490.00
2022-10-15T04:44:39.251Z,98499.00
2022-10-15T04:46:12.943Z,98495.00
2022-10-15T04:47:46.766Z,98495.00
2022-10-15T04:49:22.280Z,98494.00
2022-10-15T04:50:57.411Z,98502.00
2022-10-15T04:52:31.943Z,98507.00
2022-10-15T04:54:11.776Z,98506.00
2022-10-15T04:56:03.363Z,98508.00
2022-10-15T04:57:36.679Z,98499.00
2022-10-15T04:59:12.983Z,98493.00
2022-10-15T05:01:12.002Z,98500.00
2022-10-15T05:02:59.576Z,98497.00
2022-10-15T05:04:44.631Z,98500.00
2022-10-15T05:06:21.035Z,98503.00
2022-10-15T05:07:54.714Z,98501.00
2022-10-15T05:09:28.593Z,98498.00
2022-10-15T05:11:05.643Z,98494.00
2022-10-15T05:12:39.793Z,98496.00
2022-10-15T05:14:16.181Z,98491.00
2022-10-15T05:15:55.439Z,98490.00
2022-10-15T05:17:31.455Z,98487.00
2022-10-15T05:19:08.922Z,98490.00
2022-10-15T05:20:44.396Z,98481.00
2022-10-15T05:22:21.951Z,98479.00
2022-10-15T05:24:00.140Z,98476.00
2022-10-15T05:25:54.201Z,98472.00
2022-10-15T05:27:30.473Z,98469.00
2022-10-15T05:29:04.650Z,98468.00
2022-10-15T05:30:40.048Z,98460.00
2022-10-15T05:32:15.331Z,98455.00
2022-10-15T05:33:50.082Z,98460.00
2022-10-15T05:35:25.815Z,98448.00
2022-10-15T05:37:01.775Z,98452.00
2022-10-15T05:38:34.487Z,98472.00
2022-10-15T05:40:09.879Z,98474.00
2022-10-15T05:41:43.534Z,98483.00
2022-10-15T05:43:17.030Z,98480.00
2022-10-15T05:44:50.260Z,98487.00
2022-10-15T05:46:25.353Z,98479.00
2022-10-15T05:47:58.684Z,98485.00
2022-10-15T05:49:31.980Z,98488.00
2022-10-15T05:51:14.683Z,98495.00
2022-10-15T05:52:48.083Z,98498.00
2022-10-15T05:54:29.708Z,98495.00
2022-10-15T05:56:03.067Z,98495.00
2022-10-15T05:57:37.732Z,98496.00
2022-10-15T05:59:11.659Z,98493.00
2022-10-15T06:00:45.240Z,98494.00
2022-10-15T06:02:20.151Z,98490.00
2022-10-15T06:03:53.620Z,98491.00
2022-10-15T06:05:27.186Z,98497.00
2022-10-15T06:07:00.804Z,98496.00
2022-10-15T06:08:34.235Z,98500.00
2022-10-15T06:10:08.500Z,98498.00
2022-10-15T06:11:42.075Z,98504.00
2022-10-15T06:13:17.591Z,98500.00
2022-10-15T06:14:52.447Z,98500.00
2022-10-15T06:16:25.638Z,98512.00
2022-10-15T06:18:01.256Z,98501.00
2022-10-15T06:19:34.561Z,98504.00
2022-10-15T06:21:09.311Z,98503.00
2022-10-15T06:22:42.646Z,98509.00
2022-10-15T06:24:15.947Z,98516.00
2022-10-15T06:25:49.376Z,98508.00
2022-10-15T06:27:23.251Z,98509.00
2022-10-15T06:28:56.642Z,98510.00
2022-10-15T06:30:30.515Z,98512.00
2022-10-15T06:32:04.223Z,98511.00
2022-10-15T06:33:39.176Z,98507.00
2022-10-15T06:35:12.576Z,98513.00
2022-10-15T06:36:45.772Z,98518.00
2022-10-15T06:38:19.195Z,98517.00
2022-10-15T06:39:52.711Z,98517.00
2022-10-15T06:41:26.024Z,98523.00
2022-10-15T06:43:07.872Z,98526.00
2022-10-15T06:44:41.863Z,98530.00
2022-10-15T06:46:15.199Z,98544.00
2022-10-15T06:47:48.565Z,98548.00
2022-10-15T06:49:23.190Z,98538.00
2022-10-15T06:50:59.049Z,98540.00
2022-10-15T06:52:33.019Z,98537.00
2022-10-15T06:54:06.319Z,98543.00
2022-10-15T06:55:39.953Z,98536.00
2022-10-15T06:57:13.964Z,98534.00
2022-10-15T06:58:47.474Z,98538.00
2022-10-15T07:00:21.290Z,98534.00
2022-10-15T07:01:55.390Z,98528.00
2022-10-15T07:03:28.956Z,98529.00
2022-10-15T07:05:03.588Z,98535.00
2022-10-15T07:06:37.031Z,98529.00
2022-10-15T07:08:11.591Z,98535.00
2022-10-15T07:09:47.385Z,98534.00
2022-10-15T07:11:20.772Z,98536.00
2022-10-15T07:12:54.822Z,98540.00
2022-10-15T07:14:28.077Z,98536.00
2022-10-15T07:16:06.156Z,98537.00
2022-10-15T07:17:40.551Z,98544.00
2022-10-15T07:19:14.539Z,98541.00
2022-10-15T07:20:50.624Z,98544.00
2022-10-15T07:22:24.227Z,98541.00
2022-10-15T07:23:58.319Z,98550.00
2022-10-15T07:25:31.955Z,98548.00
2022-10-15T07:27:08.217Z,98540.00
2022-10-15T07:28:52.030Z,98544.00
2022-10-15T07:30:28.357Z,98541.00
2022-10-15T07:32:02.008Z,98543.00
2022-10-15T07:33:36.460Z,98552.00
2022-10-15T07:35:10.547Z,98545.00
2022-10-15T07:36:45.334Z,98546.00
2022-10-15T07:38:19.843Z,98545.00
2022-10-15T07:39:53.087Z,98547.00
2022-10-15T07:41:26.534Z,98546.00
2022-10-15T07:43:00.864Z,98530.00
2022-10-15T07:44:37.810Z,98529.00
2022-10-15T07:46:16.680Z,98542.00
2022-10-15T07:47:50.228Z,98535.00
2022-10-15T07:49:23.926Z,98537.00
2022-10-15T07:50:58.011Z,98537.00
2022-10-15T07:52:33.432Z,98542.00
2022-10-15T07:54:06.685Z,98541.00
2022-10-15T07:55:40.090Z,98544.00
2022-10-15T07:57:13.407Z,98542.00
2022-10-15T07:58:51.677Z,98540.00
2022-10-15T08:00:25.039Z,98538.00
2022-10-15T08:01:58.405Z,98541.00
2022-10-15T08:03:32.206Z,98547.00
2022-10-15T08:05:06.199Z,98543.00
2022-10-15T08:06:55.172Z,98540.00
2022-10-15T08:08:30.685Z,98540.00
2022-10-15T08:10:05.474Z,98539.00
2022-10-15T08:11:50.935Z,98534.00
2022-10-15T08:13:26.568Z,98537.00
2022-10-15T08:15:01.339Z,98538.00
2022-10-15T08:16:34.651Z,98545.00
2022-10-15T08:18:08.496Z,98539.00
2022-10-15T08:19:41.743Z,98545.00
2022-10-15T08:21:15.312Z,98553.00
2022-10-15T08:22:48.568Z,98545.00
2022-10-15T08:24:24.839Z,98540.00
2022-10-15T08:26:00.575Z,98548.00
2022-10-15T08:27:36.277Z,98537.00
2022-10-15T08:29:11.686Z,98535.00
2022-10-15T08:30:45.046Z,98536.00
2022-10-15T08:32:18.364Z,98531.00
2022-10-15T08:33:51.619Z,98514.00
2022-10-15T08:35:25.040Z,98526.00
2022-10-15T08:36:58.364Z,98530.00
2022-10-15T08:38:31.369Z,98524.00
2022-10-15T08:40:05.212Z,98514.00
2022-10-15T08:41:43.776Z,98522.00
2022-10-15T08:43:28.527Z,98531.00
2022-10-15T08:45:08.795Z,98521.00
2022-10-15T08:46:50.284Z,98523.00
2022-10-15T08:48:31.468Z,98516.00
2022-10-15T08:50:21.235Z,98507.00
2022-10-15T08:52:03.301Z,98514.00
2022-10-15T08:53:45.410Z,98507.00
2022-10-15T08:55:20.157Z,98512.00
2022-10-15T08:57:12.103Z,98509.00
2022-10-15T08:59:01.759Z,98519.00
2022-10-15T09:00:43.257Z,98523.00
2022-10-15T09:02:24.206Z,98521.00
2022-10-15T09:04:14.579Z,98519.00
2022-10-15T09:05:54.206Z,98535.00
2022-10-15T09:07:36.344Z,98523.00
2022-10-15T09:09:20.534Z,98524.00
2022-10-15T09:11:01.099Z,98529.00
2022-10-15T09:12:48.715Z,98522.00
2022-10-15T09:14:31.136Z,98522.00
2022-10-15T09:16:14.320Z,98529.00
2022-10-15T09:17:51.077Z,98522.00
2022-10-15T09:19:30.082Z,98518.00
2022-10-15T09:21:06.562Z,98515.00
2022-10-15T09:22:41.087Z,98519.00
2022-10-15T09:24:22.613Z,98514.00
2022-10-15T09:26:10.182Z,98517.00
2022-10-15T09:27:46.165Z,98511.00
2022-10-15T09:29:31.218Z,98515.00
2022-10-15T09:31:05.615Z,98515.00
2022-10-15T09:32:46.903Z,98507.00
2022-10-15T09:34:31.118Z,98512.00
2022-10-15T09:36:23.977Z,98509.00
2022-10-15T09:38:15.919Z,98505.00
2022-10-15T09:40:12.868Z,98503.00
2022-10-15T09:42:00.991Z,98503.00
2022-10-15T09:43:40.777Z,98499.00
2022-10-15T09:45:17.209Z,98495.00
2022-10-15T09:46:52.523Z,98489.00
2022-10-15T09:48:29.595Z,98491.00
2022-10-15T09:50:03.633Z,98495.00
2022-10-15T09:51:44.359Z,98495.00
2022-10-15T09:53:28.281Z,98496.00
2022-10-15T09:55:26.023Z,98497.00
2022-10-15T09:56:59.569Z,98489.00
2022-10-15T09:58:45.129Z,98484.00
2022-10-15T10:00:20.783Z,98486.00
2022-10-15T10:02:03.300Z,98488.00
2022-10-15T10:03:38.290Z,98495.00
2022-10-15T10:05:29.626Z,98491.00
2022-10-15T10:07:07.328Z,98498.00
2022-10-15T10:10:29.564Z,98496.00
2022-10-15T10:12:06.644Z,98495.00
2022-10-15T10:13:46.827Z,98501.00
2022-10-15T10:15:35.002Z,98487.00
2022-10-15T10:17:18.724Z,98489.00
2022-10-15T10:19:14.693Z,98496.00
2022-10-15T10:20:58.875Z,98498.00
2022-10-15T10:22:46.506Z,98498.00
2022-10-15T10:24:30.620Z,98502.00
2022-10-15T10:26:07.723Z,98502.00
2022-10-15T10:27:46.946Z,98504.00
2022-10-15T10:29:33.520Z,98502.00
2022-10-15T10:31:11.371Z,98493.00
2022-10-15T10:32:44.083Z,98494.00
2022-10-15T10:34:21.717Z,98499.00
2022-10-15T10:35:57.808Z,98486.00
2022-10-15T10:37:42.434Z,98493.00
2022-10-15T10:39:27.799Z,98488.00
2022-10-15T10:41:07.604Z,98482.00
2022-10-15T10:42:40.928Z,98492.00
2022-10-15T10:44:31.539Z,98491.00
2022-10-15T10:46:19.366Z,98480.00
2022-10-15T10:47:53.756Z,98477.00
2022-10-15T10:49:33.696Z,98473.00
2022-10-15T10:51:16.728Z,98468.00
2022-10-15T10:52:55.800Z,98481.00
2022-10-15T10:54:32.626Z,98484.00
2022-10-15T10:56:10.497Z,98474.00
2022-10-15T10:57:50.282Z,98476.00
2022-10-15T10:59:28.983Z,98471.00
2022-10-15T11:01:02.481Z,98468.00
2022-10-15T11:02:41.632Z,98474.00
2022-10-15T11:04:26.540Z,98457.00
2022-10-15T11:06:18.678Z,98466.00
2022-10-15T11:08:06.462Z,98466.00
2022-10-15T11:09:56.259Z,98468.00
2022-10-15T11:11:40.735Z,98463.00
2022-10-15T11:13:41.308Z,98463.00
2022-10-15T11:15:30.773Z,98463.00
2022-10-15T11:17:20.017Z,98464.00
2022-10-15T11:19:19.927Z,98465.00
2022-10-15T11:21:19.096Z,98470.00
2022-10-15T11:23:23.703Z,98470.00
2022-10-15T11:25:16.385Z,98465.00
2022-10-15T11:27:15.776Z,98458.00
2022-10-15T11:29:01.058Z,98456.00
2022-10-15T11:30:51.437Z,98455.00
2022-10-15T11:33:06.289Z,98460.00
2022-10-15T11:35:03.762Z,98457.00
2022-10-15T11:37:03.866Z,98458.00
2022-10-15T11:38:46.751Z,98451.00
2022-10-15T11:40:32.548Z,98458.00
2022-10-15T11:42:18.884Z,98445.00
2022-10-15T11:44:22.466Z,98439.00
2022-10-15T11:46:07.099Z,98449.00
2022-10-15T11:47:55.024Z,98452.00
2022-10-15T11:49:47.034Z,98444.00
2022-10-15T11:51:35.608Z,98444.00
2022-10-15T11:53:38.206Z,98433.00
2022-10-15T11:55:20.034Z,98429.00
2022-10-15T11:56:56.903Z,98421.00
2022-10-15T11:58:36.155Z,98422.00
2022-10-15T12:00:26.009Z,98437.00
2022-10-15T12:02:06.185Z,98426.00
2022-10-15T12:03:52.279Z,98432.00
2022-10-15T12:05:36.209Z,98427.00
2022-10-15T12:07:19.460Z,98425.00
2022-10-15T12:08:56.114Z,98418.00
2022-10-15T12:10:51.739Z,98417.00
2022-10-15T12:12:38.991Z,98421.00
2022-10-15T12:14:23.221Z,98417.00
2022-10-15T12:16:15.589Z,98415.00
2022-10-15T12:17:59.702Z,98416.00
2022-10-15T12:19:45.406Z,98417.00
2022-10-15T12:21:36.010Z,98413.00
2022-10-15T12:23:39.699Z,98413.00
2022-10-15T12:25:46.167Z,98408.00
2022-10-15T12:27:30.723Z,98400.00
2022-10-15T12:29:07.576Z,98394.00
2022-10-15T12:30:43.377Z,98400.00
2022-10-15T12:32:25.330Z,98392.00
2022-10-15T12:33:59.415Z,98395.00
2022-10-15T12:35:38.344Z,98387.00
2022-10-15T12:37:20.232Z,98388.00
2022-10-15T12:39:00.415Z,98397.00
2022-10-15T12:40:40.807Z,98394.00
2022-10-15T12:42:28.549Z,98390.00
2022-10-15T12:44:09.592Z,98398.00
2022-10-15T12:45:52.392Z,98394.00
2022-10-15T12:47:48.991Z,98393.00
2022-10-15T12:49:48.432Z,98395.00
2022-10-15T12:51:41.283Z,98389.00
2022-10-15T12:53:46.551Z,98392.00
2022-10-15T12:55:33.582Z,98391.00
2022-10-15T12:57:52.703Z,98400.00
2022-10-15T12:59:51.770Z,98388.00
2022-10-15T13:01:55.595Z,98403.00
2022-10-15T13:03:45.233Z,98388.00
2022-10-15T13:05:28.214Z,98393.00
2022-10-15T13:07:15.131Z,98391.00
2022-10-15T13:08:56.429Z,98392.00
2022-10-15T13:10:36.388Z,98392.00
2022-10-15T13:12:26.684Z,98400.00
2022-10-15T13:14:04.176Z,98404.00
2022-10-15T13:15:38.232Z,98391.00
2022-10-15T13:17:19.679Z,98390.00
2022-10-15T13:18:57.254Z,98397.00
2022-10-15T13:20:38.249Z,98400.00
2022-10-15T13:22:25.936Z,98394.00
2022-10-15T13:24:01.023Z,98391.00
2022-10-15T13:25:35.005Z,98398.00
2022-10-15T13:27:17.788Z,98400.00
2022-10-15T13:28:58.689Z,98406.00
2022-10-15T13:30:32.576Z,98398.00
2022-10-15T13:32:15.742Z,98397.00
2022-10-15T13:33:53.844Z,98400.00
2022-10-15T13:35:37.583Z,98400.00
2022-10-15T13:37:20.530Z,98405.00
2022-10-15T13:39:01.675Z,98397.00
2022-10-15T13:40:35.199Z,98404.00
2022-10-15T13:42:15.556Z,98395.00
2022-10-15T13:43:54.881Z,98388.00
2022-10-15T13:45:28.951Z,98390.00
2022-10-15T13:47:02.643Z,98389.00
2022-10-15T13:50:26.374Z,98393.00
2022-10-15T13:52:00.102Z,98391.00
2022-10-15T13:53:37.772Z,98397.00
2022-10-15T13:55:22.210Z,98392.00
2022-10-15T13:56:59.070Z,98385.00
2022-10-15T13:58:35.847Z,98391.00
2022-10-15T14:00:24.516Z,98388.00
2022-10-15T14:02:01.993Z,98386.00
2022-10-15T14:03:37.472Z,98390.00
2022-10-15T14:05:17.335Z,98388.00
2022-10-15T14:08:39.181Z,98395.00
2022-10-15T14:10:13.131Z,98384.00
2022-10-15T14:11:48.297Z,98391.00
2022-10-15T14:13:21.963Z,98397.00
2022-10-15T14:14:55.300Z,98396.00
2022-10-15T14:16:33.601Z,98387.00
2022-10-15T14:18:07.656Z,98385.00
2022-10-15T14:19:41.525Z,98386.00
2022-10-15T14:21:18.195Z,98391.00
2022-10-15T14:22:52.497Z,98389.00
2022-10-15T14:24:33.270Z,98382.00
2022-10-15T14:26:07.280Z,98392.00
2022-10-15T14:27:46.938Z,98401.00
2022-10-15T14:29:26.898Z,98391.00
2022-10-15T14:31:02.000Z,98393.00
2022-10-15T14:32:48.437Z,98388.00
2022-10-15T14:34:39.479Z,98387.00
2022-10-15T14:36:24.662Z,98403.00
2022-10-15T14:38:05.074Z,98395.00
2022-10-15T14:39:39.175Z,98397.00
2022-10-15T14:41:27.096Z,98389.00
2022-10-15T14:43:08.746Z,98389.00
2022-10-15T14:44:45.002Z,98385.00
2022-10-15T14:46:20.747Z,98389.00
2022-10-15T14:47:59.038Z,98385.00
2022-10-15T14:49:35.778Z,98383.00
2022-10-15T14:51:25.745Z,98397.00
2022-10-15T14:53:01.734Z,98398.00
2022-10-15T14:54:40.873Z,98399.00
2022-10-15T14:56:19.926Z,98396.00
2022-10-15T14:57:53.855Z,98394.00
2022-10-15T14:59:38.156Z,98385.00
2022-10-15T15:01:17.174Z,98390.00
2022-10-15T15:02:51.368Z,98391.00
2022-10-15T15:04:41.495Z,98397.00
2022-10-15T15:06:15.502Z,98394.00
2022-10-15T15:07:49.004Z,98393.00
2022-10-15T15:09:22.528Z,98382.00
2022-10-15T15:10:58.909Z,98383.00
2022-10-15T15:12:33.142Z,98377.00
2022-10-15T15:14:24.862Z,98385.00
2022-10-15T15:15:59.732Z,98380.00
2022-10-15T15:17:33.896Z,98386.00
2022-10-15T15:19:10.081Z,98398.00
2022-10-15T15:20:46.238Z,98405.00
2022-10-15T15:22:27.870Z,98407.00
2022-10-15T15:24:01.360Z,98411.00
2022-10-15T15:25:37.976Z,98407.00
2022-10-15T15:27:25.115Z,98416.00
2022-10-15T15:28:58.677Z,98400.00
2022-10-15T15:30:35.488Z,98410.00
2022-10-15T15:32:11.696Z,98400.00
2022-10-15T15:33:45.431Z,98401.00
2022-10-15T15:35:26.582Z,98397.00
2022-10-15T15:37:02.828Z,98399.00
2022-10-15T15:40:12.503Z,98413.00
2022-10-15T15:41:45.847Z,98419.00
2022-10-15T15:43:20.536Z,98417.00
2022-10-15T15:44:54.015Z,98416.00
2022-10-15T15:46:27.366Z,98419.00
2022-10-15T15:48:03.580Z,98415.00
2022-10-15T15:49:37.806Z,98415.00
2022-10-15T15:51:21.979Z,98414.00
2022-10-15T15:52:55.274Z,98421.00
2022-10-15T15:54:29.008Z,98415.00
2022-10-15T15:56:02.341Z,98412.00
2022-10-15T15:57:36.060Z,98409.00
2022-10-15T15:59:09.320Z,98414.00
2022-10-15T16:00:42.806Z,98413.00
2022-10-15T16:02:15.063Z,98422.00
2022-10-15T16:03:50.364Z,98437.00
2022-10-15T16:05:24.542Z,98440.00
2022-10-15T16:06:58.066Z,98446.00
2022-10-15T16:08:31.576Z,98444.00
2022-10-15T16:10:09.055Z,98444.00
2022-10-15T16:11:42.761Z,98446.00
2022-10-15T16:13:16.075Z,98449.00
2022-10-15T16:14:49.501Z,98444.00
2022-10-15T16:16:22.863Z,98434.00
2022-10-15T16:17:56.360Z,98441.00
2022-10-15T16:19:30.932Z,98453.00
2022-10-15T16:21:04.750Z,98452.00
2022-10-15T16:22:37.984Z,98465.00
2022-10-15T16:24:12.246Z,98456.00
2022-10-15T16:25:45.661Z,98465.00
2022-10-15T16:27:18.863Z,98467.00
2022-10-15T16:28:52.687Z,98473.00
2022-10-15T16:30:26.163Z,98473.00
2022-10-15T16:31:59.859Z,98472.00
2022-10-15T16:33:33.136Z,98477.00
2022-10-15T16:35:09.760Z,98478.00
2022-10-15T16:36:43.666Z,98480.00
2022-10-15T16:38:17.007Z,98483.00
2022-10-15T16:39:50.317Z,98480.00
2022-10-15T16:41:23.804Z,98480.00
2022-10-15T16:42:57.356Z,98492.00
2022-10-15T16:44:30.963Z,98502.00
2022-10-15T16:46:05.511Z,98500.00
2022-10-15T16:47:40.544Z,98503.00
2022-10-15T16:49:13.916Z,98496.00
2022-10-15T16:50:48.556Z,98500.00
2022-10-15T16:52:22.400Z,98498.00
2022-10-15T16:53:56.454Z,98504.00
2022-10-15T16:55:32.207Z,98509.00
2022-10-15T16:57:06.203Z,98499.00
2022-10-15T16:58:40.190Z,98504.00
2022-10-15T17:00:14.457Z,98504.00
2022-10-15T17:01:48.346Z,98511.00
2022-10-15T17:03:21.096Z,98517.00
2022-10-15T17:04:54.554Z,98516.00
2022-10-15T17:06:31.963Z,98515.00
2022-10-15T17:08:06.576Z,98528.00
2022-10-15T17:09:40.196Z,98540.00
2022-10-15T17:11:16.196Z,98530.00
2022-10-15T17:12:49.558Z,98545.00
2022-10-15T17:14:22.815Z,98555.00
2022-10-15T17:15:59.178Z,98552.00
2022-10-15T17:17:34.432Z,98559.00
2022-10-15T17:19:08.478Z,98571.00
2022-10-15T17:20:46.579Z,98581.00
2022-10-15T17:22:21.939Z,98579.00
2022-10-15T17:23:57.791Z,98583.00
2022-10-15T17:25:31.117Z,98583.00
2022-10-15T17:27:04.567Z,98584.00
2022-10-15T17:28:38.628Z,98588.00
2022-10-15T17:30:12.575Z,98595.00
2022-10-15T17:31:46.460Z,98592.00
2022-10-15T17:33:20.057Z,98595.00
2022-10-15T17:34:53.641Z,98606.00
2022-10-15T17:36:29.440Z,98612.00
2022-10-15T17:38:04.440Z,98615.00
2022-10-15T17:39:37.907Z,98616.00
2022-10-15T17:41:15.494Z,98616.00
2022-10-15T17:42:49.028Z,98624.00
2022-10-15T17:44:22.411Z,98627.00
2022-10-15T17:46:03.074Z,98639.00
2022-10-15T17:47:37.686Z,98637.00
2022-10-15T17:49:11.346Z,98641.00
2022-10-15T17:50:45.854Z,98655.00
2022-10-15T17:52:19.261Z,98656.00
2022-10-15T17:53:55.089Z,98663.00
2022-10-15T17:55:30.655Z,98670.00
2022-10-15T17:57:07.335Z,98678.00
2022-10-15T17:58:41.662Z,98678.00
2022-10-15T18:00:17.700Z,98684.00
2022-10-15T18:01:59.788Z,98689.00
2022-10-15T18:03:33.775Z,98691.00
2022-10-15T18:05:08.063Z,98689.00
2022-10-15T18:06:45.129Z,98690.00
2022-10-15T18:08:30.408Z,98695.00
2022-10-15T18:10:06.179Z,98688.00
2022-10-15T18:11:40.455Z,98691.00
2022-10-15T18:13:14.705Z,98691.00
2022-10-15T18:14:49.512Z,98685.00
2022-10-15T18:16:28.318Z,98687.00
2022-10-15T18:18:01.806Z,98701.00
2022-10-15T18:19:35.440Z,98694.00
2022-10-15T18:21:12.105Z,98700.00
2022-10-15T18:22:45.447Z,98701.00
2022-10-15T18:24:21.708Z,98698.00
2022-10-15T18:26:04.067Z,98715.00
2022-10-15T18:27:37.692Z,98704.00
2022-10-15T18:29:12.040Z,98705.00
2022-10-15T18:30:47.980Z,98722.00
2022-10-15T18:32:22.436Z,98709.00
2022-10-15T18:33:57.240Z,98703.00
2022-10-15T18:35:31.027Z,98706.00
2022-10-15T18:37:04.945Z,98706.00
2022-10-15T18:38:40.646Z,98701.00
2022-10-15T18:40:14.333Z,98697.00
2022-10-15T18:41:49.109Z,98703.00
2022-10-15T18:43:21.634Z,98706.00
2022-10-15T18:44:55.352Z,98704.00
2022-10-15T18:46:30.922Z,98707.00
2022-10-15T18:48:05.323Z,98704.00
2022-10-15T18:49:43.193Z,98712.00
2022-10-15T18:51:17.076Z,98719.00
2022-10-15T18:52:50.599Z,98715.00
2022-10-15T18:54:24.661Z,98716.00
2022-10-15T18:55:58.247Z,98717.00
2022-10-15T18:57:34.827Z,98719.00
2022-10-15T18:59:08.633Z,98717.00
2022-10-15T19:00:42.534Z,98714.00
2022-10-15T19:02:16.019Z,98706.00
2022-10-15T19:03:49.999Z,98704.00
2022-10-15T19:05:23.800Z,98713.00
2022-10-15T19:07:02.080Z,98713.00
2022-10-15T19:08:35.577Z,98729.00
2022-10-15T19:10:10.326Z,98730.00
2022-10-15T19:11:47.555Z,98729.00
2022-10-15T19:13:22.227Z,98734.00
2022-10-15T19:14:55.780Z,98732.00
2022-10-15T19:16:29.806Z,98730.00
2022-10-15T19:18:11.290Z,98732.00
2022-10-15T19:19:49.715Z,98721.00
2022-10-15T19:21:23.384Z,98717.00
2022-10-15T19:22:56.631Z,98721.00
2022-10-15T19:24:30.071Z,98724.00